Time;durP1;ratioP1;P1;durP2;ratioP2;P2;SDS_P1;SDS_P2;PMS_P1;PMS_P2;Temp;Humidity;BMP_temperature;BMP_pressure;BME280_temperature;BME280_humidity;BME280_pressure;Samples;Min_cycle;Max_cycle;Signal;HPM_P1;HPM_P2
2024/03/12 00:02:28;;;;;;;;;;;;;;;20.53;42.24;95106.47;10311173;28;1876;-74
2024/03/12 00:07:30;;;;;;;;;;;;;;;20.51;42.32;95100.69;10309130;28;1839;-76
2024/03/12 00:12:31;;;;;;;;;;;;;;;20.48;42.18;95111.81;10338608;28;1809;-75
2024/03/12 00:17:32;;;;;;;;;;;;;;;20.47;42.20;95118.13;10314355;28;2879;-74
2024/03/12 00:22:35;;;;;;;;;;;;;;;20.46;42.02;95123.69;10287383;28;2894;-75
2024/03/12 00:27:35;;;;;;;;;;;;;;;20.45;42.20;95130.03;10307108;28;2889;-75
2024/03/12 00:32:36;;;;;;;;;;;;;;;20.42;42.15;95131.41;10295523;28;2803;-74
2024/03/12 00:37:38;;;;;;;;;;;;;;;20.41;41.86;95140.34;10295177;28;2799;-75
2024/03/12 00:42:38;;;;;;;;;;;;;;;20.41;41.92;95139.56;10293989;28;2839;-75
2024/03/12 00:47:42;;;;;;;;;;;;;;;20.39;42.00;95145.13;10305315;28;2825;-75
2024/03/12 00:52:43;;;;;;;;;;;;;;;20.38;41.90;95150.69;10293396;28;2986;-75
2024/03/12 00:57:45;;;;;;;;;;;;;;;20.36;41.70;95148.31;10288871;28;2893;-74
2024/03/12 01:02:53;;;;;;;;;;;;;;;20.34;41.98;95150.44;10319767;28;2832;-76
2024/03/12 01:07:54;;;;;;;;;;;;;;;20.33;41.91;95156.00;10312340;28;2933;-75
2024/03/12 01:12:54;;;;;;;;;;;;;;;20.32;41.98;95157.09;10307761;28;2907;-75
2024/03/12 01:17:55;;;;;;;;;;;;;;;20.31;41.93;95166.03;10296911;28;2768;-75
2024/03/12 01:22:55;;;;;;;;;;;;;;;20.28;41.64;95168.19;10284629;28;2798;-76
2024/03/12 01:27:55;;;;;;;;;;;;;;;20.27;41.68;95165.84;10289950;27;2784;-75
2024/03/12 01:32:57;;;;;;;;;;;;;;;20.25;41.53;95162.72;10284284;28;2905;-75
2024/03/12 01:37:58;;;;;;;;;;;;;;;20.24;41.56;95156.66;10295028;28;2945;-75
2024/03/12 01:43:03;;;;;;;;;;;;;;;20.23;41.66;95162.22;10287678;28;2793;-75
2024/03/12 01:48:06;;;;;;;;;;;;;;;20.21;41.71;95167.78;10286341;28;2874;-75
2024/03/12 01:53:07;;;;;;;;;;;;;;;20.20;41.51;95176.72;10319450;28;2769;-75
2024/03/12 01:58:07;;;;;;;;;;;;;;;20.19;41.52;95177.78;10295089;28;2820;-75
2024/03/12 02:03:09;;;;;;;;;;;;;;;20.18;41.57;95183.28;10306366;28;2893;-74
2024/03/12 02:08:09;;;;;;;;;;;;;;;20.17;41.23;95189.63;10322866;28;2811;-75
2024/03/12 02:13:10;;;;;;;;;;;;;;;20.16;41.24;95201.22;10291245;28;2865;-75
2024/03/12 02:18:10;;;;;;;;;;;;;;;20.15;41.20;95199.66;10262370;28;2760;-74
2024/03/12 02:23:11;;;;;;;;;;;;;;;20.13;41.16;95197.28;10302200;28;2839;-74
2024/03/12 02:28:12;;;;;;;;;;;;;;;20.13;41.31;95209.69;10324734;28;2863;-75
2024/03/12 02:33:14;;;;;;;;;;;;;;;20.11;41.30;95211.81;10313106;28;2871;-75
2024/03/12 02:38:14;;;;;;;;;;;;;;;20.10;41.26;95220.75;10322969;28;2818;-75
2024/03/12 02:43:14;;;;;;;;;;;;;;;20.08;41.06;95220.25;10382820;28;2787;-76
2024/03/12 02:48:15;;;;;;;;;;;;;;;20.07;40.95;95224.72;10296827;28;2796;-76
2024/03/12 02:53:15;;;;;;;;;;;;;;;20.07;41.11;95235.25;10328719;28;2913;-76
2024/03/12 02:58:16;;;;;;;;;;;;;;;20.05;40.89;95234.75;10296720;28;2872;-76
2024/03/12 03:03:16;;;;;;;;;;;;;;;20.05;40.96;95234.00;10325861;28;2877;-76
2024/03/12 03:08:17;;;;;;;;;;;;;;;20.04;41.02;95232.41;10299233;28;2824;-77
2024/03/12 03:13:20;;;;;;;;;;;;;;;20.03;41.10;95238.75;10330024;28;2834;-75
2024/03/12 03:18:20;;;;;;;;;;;;;;;20.01;40.93;95238.25;10293055;28;2847;-76
2024/03/12 03:23:21;;;;;;;;;;;;;;;20.01;40.72;95243.53;10259250;28;2901;-76
2024/03/12 03:28:21;;;;;;;;;;;;;;;20.00;41.01;95252.47;10298924;28;2788;-76
2024/03/12 03:33:22;;;;;;;;;;;;;;;19.99;40.82;95256.19;10281602;28;2829;-76
2024/03/12 03:38:22;;;;;;;;;;;;;;;19.96;40.90;95254.88;10282558;28;2834;-76
2024/03/12 03:43:22;;;;;;;;;;;;;;;19.96;40.81;95265.41;10291174;28;2826;-76
2024/03/12 03:48:23;;;;;;;;;;;;;;;19.96;40.76;95269.88;10301841;28;2953;-76
2024/03/12 03:53:23;;;;;;;;;;;;;;;19.95;41.02;95273.56;10295901;28;2779;-76
2024/03/12 03:58:24;;;;;;;;;;;;;;;19.93;40.69;95273.06;10318658;28;2917;-75
2024/03/12 04:03:25;;;;;;;;;;;;;;;19.93;40.84;95280.94;10292440;28;2887;-74
2024/03/12 04:08:25;;;;;;;;;;;;;;;19.92;40.72;95285.44;10291279;28;2913;-75
2024/03/12 04:13:26;;;;;;;;;;;;;;;19.91;40.55;95290.97;10310044;28;2831;-74
2024/03/12 04:18:27;;;;;;;;;;;;;;;19.91;40.77;95301.50;10322496;28;2866;-74
2024/03/12 04:23:27;;;;;;;;;;;;;;;19.88;40.71;95297.59;10298614;28;2748;-75
2024/03/12 04:28:28;;;;;;;;;;;;;;;19.88;40.65;95309.94;10295028;28;2849;-75
2024/03/12 04:33:28;;;;;;;;;;;;;;;19.88;40.72;95309.94;10326583;28;2855;-76
2024/03/12 04:38:32;;;;;;;;;;;;;;;19.86;40.50;95328.66;10323526;28;2788;-76
2024/03/12 04:43:33;;;;;;;;;;;;;;;19.86;40.46;95328.66;10287654;28;2878;-75
2024/03/12 04:48:33;;;;;;;;;;;;;;;19.84;40.61;95325.50;10278988;28;2823;-75
2024/03/12 04:53:34;;;;;;;;;;;;;;;19.84;40.73;95348.41;10299298;28;2803;-76
2024/03/12 04:58:35;;;;;;;;;;;;;;;19.83;40.35;95352.88;10293132;28;2912;-75
2024/03/12 05:03:36;;;;;;;;;;;;;;;19.83;40.79;95359.97;10294231;28;2828;-76
2024/03/12 05:08:37;;;;;;;;;;;;;;;19.82;40.50;95368.94;10278351;28;2887;-73
2024/03/12 05:13:37;;;;;;;;;;;;;;;19.84;40.65;95375.50;10293659;28;2934;-75
2024/03/12 05:18:37;;;;;;;;;;;;;;;19.88;40.50;95376.50;10291526;28;2850;-76
2024/03/12 05:23:38;;;;;;;;;;;;;;;19.95;39.71;95382.19;10307047;28;2913;-76
2024/03/12 05:28:38;;;;;;;;;;;;;;;20.01;39.06;95388.22;10289949;28;2881;-76
2024/03/12 05:33:38;;;;;;;;;;;;;;;20.04;38.97;95390.28;10303631;28;2815;-74
2024/03/12 05:38:54;;;;;;;;;;;;;;;20.09;38.98;95400.78;10276493;28;2832;-75
2024/03/12 05:49:14;;;;;;;;;;;;;;;20.19;38.44;95404.13;10316724;28;2874;-76
2024/03/12 05:54:14;;;;;;;;;;;;;;;20.22;38.65;95406.19;10325503;28;2754;-75
2024/03/12 05:59:14;;;;;;;;;;;;;;;20.26;37.86;95401.13;10303654;28;2859;-76
2024/03/12 06:04:15;;;;;;;;;;;;;;;20.32;38.62;95418.44;10380356;28;2844;-76
2024/03/12 06:09:19;;;;;;;;;;;;;;;20.35;38.36;95420.53;10297695;28;2956;-76
2024/03/12 06:14:19;;;;;;;;;;;;;;;20.39;37.85;95433.91;10313064;28;2921;-75
2024/03/12 06:19:19;;;;;;;;;;;;;;;20.40;38.72;95441.53;10299205;28;2902;-76
2024/03/12 06:24:20;;;;;;;;;;;;;;;20.46;38.39;95450.94;10305932;28;2837;-74
2024/03/12 06:29:20;;;;;;;;;;;;;;;20.46;38.01;95464.13;10291731;28;2924;-77
2024/03/12 06:34:21;;;;;;;;;;;;;;;20.49;38.38;95457.47;10279895;28;2861;-67
2024/03/12 06:39:21;;;;;;;;;;;;;;;20.53;37.64;95464.56;10295282;28;2872;-75
2024/03/12 06:44:25;;;;;;;;;;;;;;;20.53;38.00;95464.56;10292065;28;2870;-74
2024/03/12 06:49:25;;;;;;;;;;;;;;;20.53;38.07;95475.09;10322588;28;2771;-68
2024/03/12 06:54:32;;;;;;;;;;;;;;;20.55;37.97;95486.13;10296243;28;2913;-65
2024/03/12 06:59:35;;;;;;;;;;;;;;;20.55;37.95;95495.88;10289574;28;2826;-65
2024/03/12 07:04:43;;;;;;;;;;;;;;;20.57;38.10;95499.78;10288717;28;2848;-66
2024/03/12 07:09:44;;;;;;;;;;;;;;;20.58;37.96;95490.06;10307495;28;2874;-65
2024/03/12 07:14:54;;;;;;;;;;;;;;;20.59;38.21;95491.59;10320863;28;2769;-65
2024/03/12 07:19:57;;;;;;;;;;;;;;;20.63;38.19;95496.03;10298520;28;2768;-65
2024/03/12 07:24:59;;;;;;;;;;;;;;;20.62;37.94;95497.13;10316799;28;2807;-65
2024/03/12 07:30:00;;;;;;;;;;;;;;;20.61;37.93;95498.16;10272804;28;2817;-66
2024/03/12 07:35:01;;;;;;;;;;;;;;;20.64;37.27;95508.16;10286633;28;2911;-65
2024/03/12 07:40:01;;;;;;;;;;;;;;;20.68;36.89;95509.16;10283384;28;2916;-66
2024/03/12 07:45:01;;;;;;;;;;;;;;;20.67;37.69;95512.09;10288188;28;2921;-65
2024/03/12 07:50:05;;;;;;;;;;;;;;;20.65;37.47;95507.09;10284934;28;2795;-65
2024/03/12 07:55:06;;;;;;;;;;;;;;;20.70;36.65;95512.31;10294474;28;2843;-65
2024/03/12 08:00:14;;;;;;;;;;;;;;;20.68;37.40;95511.81;10287808;28;2847;-65
2024/03/12 08:05:14;;;;;;;;;;;;;;;20.70;37.26;95517.56;10296176;28;2869;-65
2024/03/12 08:10:15;;;;;;;;;;;;;;;20.70;37.71;95517.56;10289596;28;2862;-65
2024/03/12 08:15:17;;;;;;;;;;;;;;;20.72;37.09;95520.72;10285909;28;2806;-66
2024/03/12 08:20:18;;;;;;;;;;;;;;;20.74;36.60;95526.50;10318728;28;2825;-66
2024/03/12 08:25:20;;;;;;;;;;;;;;;20.79;36.98;95523.78;10288043;28;2862;-66
2024/03/12 08:30:20;;;;;;;;;;;;;;;20.81;36.96;95526.91;10286809;28;2931;-67
2024/03/12 08:35:20;;;;;;;;;;;;;;;20.84;36.97;95530.84;10304267;28;2786;-67
2024/03/12 08:40:21;;;;;;;;;;;;;;;20.80;37.19;95530.63;10282899;28;2876;-66
2024/03/12 08:45:21;;;;;;;;;;;;;;;20.81;37.06;95532.19;10283033;28;2995;-66
2024/03/12 08:50:22;;;;;;;;;;;;;;;20.82;37.05;95538.25;10280671;28;2885;-65
2024/03/12 08:55:22;;;;;;;;;;;;;;;20.83;36.63;95542.47;10292211;28;2837;-66
2024/03/12 09:00:24;;;;;;;;;;;;;;;20.87;37.13;95539.00;10287092;28;2819;-66
2024/03/12 09:05:25;;;;;;;;;;;;;;;20.87;36.81;95539.00;10313626;28;2795;-66
2024/03/12 09:10:25;;;;;;;;;;;;;;;20.86;36.74;95545.31;10293074;28;2960;-65
2024/03/12 09:15:27;;;;;;;;;;;;;;;20.85;36.90;95548.25;10294738;28;2929;-67
2024/03/12 09:20:27;;;;;;;;;;;;;;;20.88;36.72;95550.31;10290378;28;2887;-66
2024/03/12 09:25:29;;;;;;;;;;;;;;;20.87;36.72;95548.75;10289338;28;2913;-66
2024/03/12 09:30:30;;;;;;;;;;;;;;;20.85;36.97;95549.03;10314716;28;2962;-65
2024/03/12 09:35:30;;;;;;;;;;;;;;;20.87;36.56;95549.53;10313175;28;2760;-65
2024/03/12 09:40:32;;;;;;;;;;;;;;;20.87;37.22;95552.19;10322628;28;2871;-65
2024/03/12 09:45:32;;;;;;;;;;;;;;;20.91;36.80;95549.75;10299991;28;2868;-67
2024/03/12 09:50:35;;;;;;;;;;;;;;;20.94;36.77;95555.25;10287419;28;2830;-67
2024/03/12 09:55:35;;;;;;;;;;;;;;;20.95;36.31;95548.94;10284169;28;2762;-67
2024/03/12 10:00:36;;;;;;;;;;;;;;;20.94;36.97;95551.81;10288776;28;2854;-67
2024/03/12 10:05:40;;;;;;;;;;;;;;;20.99;36.33;95552.56;10291196;28;2833;-67
2024/03/12 10:10:43;;;;;;;;;;;;;;;20.96;36.60;95568.13;10317785;28;2820;-67
2024/03/12 10:15:51;;;;;;;;;;;;;;;20.96;36.96;95563.66;10370170;28;2961;-66
2024/03/12 10:20:54;;;;;;;;;;;;;;;20.97;36.88;95569.72;10286890;28;2930;-67
2024/03/12 10:26:16;;;;;;;;;;;;;;;20.99;36.32;95568.38;10316236;28;2790;-66
2024/03/12 10:31:19;;;;;;;;;;;;;;;20.98;36.76;95566.00;10317769;28;3050;-67
2024/03/12 10:36:29;;;;;;;;;;;;;;;20.99;36.29;95563.09;10307644;28;2794;-66
2024/03/12 10:41:29;;;;;;;;;;;;;;;20.98;36.55;95572.06;10303118;28;2795;-67
2024/03/12 10:46:30;;;;;;;;;;;;;;;20.98;37.03;95572.06;10292320;28;2875;-67
2024/03/12 10:51:30;;;;;;;;;;;;;;;20.99;36.71;95573.66;10307966;28;2830;-66
2024/03/12 10:56:31;;;;;;;;;;;;;;;20.98;36.73;95572.06;10299395;28;2820;-66
2024/03/12 11:01:31;;;;;;;;;;;;;;;21.01;36.36;95574.16;10320178;28;2826;-67
2024/03/12 11:06:34;;;;;;;;;;;;;;;21.02;36.39;95573.09;10293910;28;2812;-66
2024/03/12 11:11:35;;;;;;;;;;;;;;;21.02;36.62;95573.09;10286941;28;2871;-66
2024/03/12 11:16:35;;;;;;;;;;;;;;;21.00;36.81;95577.84;10320270;28;2857;-66
2024/03/12 11:21:39;;;;;;;;;;;;;;;20.99;35.96;95578.91;10324615;28;2941;-67
2024/03/12 11:26:42;;;;;;;;;;;;;;;20.98;36.52;95576.53;10294272;28;2892;-67
2024/03/12 11:31:42;;;;;;;;;;;;;;;21.00;36.17;95579.69;10293426;28;2774;-66
2024/03/12 11:36:46;;;;;;;;;;;;;;;21.02;36.17;95575.75;10278571;28;2889;-66
2024/03/12 11:42:10;;;;;;;;;;;;;;;21.03;35.92;95579.97;10307644;28;2782;-67
2024/03/12 11:47:29;;;;;;;;;;;;;;;21.00;36.81;95577.03;10288480;28;2863;-66
2024/03/12 11:52:31;;;;;;;;;;;;;;;21.04;36.37;95575.47;10311781;28;2996;-66
2024/03/12 11:57:32;;;;;;;;;;;;;;;21.08;36.01;95570.44;10284073;28;2805;-66
2024/03/12 12:02:32;;;;;;;;;;;;;;;21.03;36.52;95573.91;10278126;28;2757;-67
2024/03/12 12:07:33;;;;;;;;;;;;;;;21.05;36.02;95572.56;10320474;28;2840;-67
2024/03/12 12:12:33;;;;;;;;;;;;;;;21.05;36.57;95569.13;10309796;28;3242;-67
2024/03/12 12:17:33;;;;;;;;;;;;;;;21.12;36.43;95576.69;10293401;28;2806;-68
2024/03/12 12:22:34;;;;;;;;;;;;;;;21.07;36.05;95569.63;10294712;28;2832;-67
2024/03/12 12:27:35;;;;;;;;;;;;;;;21.13;36.45;95570.34;10289082;28;2856;-68
2024/03/12 12:32:37;;;;;;;;;;;;;;;21.11;36.26;95569.84;10290420;28;2869;-68
2024/03/12 12:37:38;;;;;;;;;;;;;;;21.12;36.37;95566.94;10273202;28;2831;-68
2024/03/12 12:42:38;;;;;;;;;;;;;;;21.14;36.37;95562.19;10316128;28;2799;-67
2024/03/12 12:47:39;;;;;;;;;;;;;;;21.11;36.47;95562.72;10288052;28;2929;-67
2024/03/12 12:52:40;;;;;;;;;;;;;;;21.16;36.56;95559.25;10292699;28;2778;-67
2024/03/12 12:57:44;;;;;;;;;;;;;;;21.15;36.64;95555.03;10295814;28;2787;-68
2024/03/12 13:02:46;;;;;;;;;;;;;;;21.19;36.77;95558.69;10328061;27;2903;-68
2024/03/12 13:07:46;;;;;;;;;;;;;;;21.18;36.06;95565.03;10375826;28;2905;-68
2024/03/12 13:12:46;;;;;;;;;;;;;;;21.11;36.54;95564.56;10319808;28;2819;-67
2024/03/12 13:17:48;;;;;;;;;;;;;;;21.12;36.31;95560.88;10287594;28;2783;-69
2024/03/12 13:22:50;;;;;;;;;;;;;;;21.08;35.94;95580.97;10357150;28;2836;-68
2024/03/12 13:27:50;;;;;;;;;;;;;;;21.06;35.76;95583.88;10286814;28;2945;-68
2024/03/12 13:32:51;;;;;;;;;;;;;;;21.07;35.59;95585.44;10318557;28;2878;-67
2024/03/12 13:37:51;;;;;;;;;;;;;;;21.03;36.08;95587.06;10290258;28;2824;-67
2024/03/12 13:42:51;;;;;;;;;;;;;;;21.03;35.90;95593.13;10289411;28;2844;-67
2024/03/12 13:47:52;;;;;;;;;;;;;;;21.03;35.68;95589.72;10287221;28;2843;-67
2024/03/12 13:52:52;;;;;;;;;;;;;;;21.05;34.79;95593.63;10281750;28;2927;-67
2024/03/12 13:57:52;;;;;;;;;;;;;;;21.03;34.71;95598.41;10291166;28;2811;-67
2024/03/12 14:02:53;;;;;;;;;;;;;;;21.03;35.22;95606.31;10296241;28;2831;-67
2024/03/12 14:07:53;;;;;;;;;;;;;;;21.03;34.78;95611.59;10259898;28;2808;-68
2024/03/12 14:12:55;;;;;;;;;;;;;;;21.03;34.43;95610.78;10295631;28;2810;-68
2024/03/12 14:17:55;;;;;;;;;;;;;;;20.99;34.89;95615.81;10291341;28;2903;-68
2024/03/12 14:22:56;;;;;;;;;;;;;;;20.97;35.53;95612.66;10297751;28;2836;-68
2024/03/12 14:27:56;;;;;;;;;;;;;;;20.96;34.80;95611.09;10296034;28;2930;-68
2024/03/12 14:32:56;;;;;;;;;;;;;;;20.94;36.08;95618.47;10294678;28;2849;-68
2024/03/12 14:37:58;;;;;;;;;;;;;;;20.95;34.50;95619.28;10295494;28;2874;-68
2024/03/12 14:43:00;;;;;;;;;;;;;;;20.92;34.35;95620.63;10290284;28;2874;-68
2024/03/12 14:48:00;;;;;;;;;;;;;;;20.88;35.28;95619.59;10290384;28;2862;-67
2024/03/12 14:53:02;;;;;;;;;;;;;;;20.87;34.68;95623.31;10297141;28;2854;-67
2024/03/12 14:58:03;;;;;;;;;;;;;;;20.86;34.90;95627.00;10288928;28;2933;-67
2024/03/12 15:03:04;;;;;;;;;;;;;;;20.85;35.37;95633.34;10275777;28;2913;-68
2024/03/12 15:08:04;;;;;;;;;;;;;;;20.87;35.85;95627.78;10285862;28;2799;-68
2024/03/12 15:13:05;;;;;;;;;;;;;;;20.88;35.67;95630.13;10285520;28;2863;-68
2024/03/12 15:18:05;;;;;;;;;;;;;;;20.89;36.01;95630.94;10294053;28;3014;-68
2024/03/12 15:23:05;;;;;;;;;;;;;;;20.90;35.72;95627.22;10289253;28;2817;-68
2024/03/12 15:28:06;;;;;;;;;;;;;;;20.91;35.99;95631.44;10296925;28;2970;-68
2024/03/12 15:33:06;;;;;;;;;;;;;;;20.92;35.86;95630.34;10297335;28;2871;-67
2024/03/12 15:38:07;;;;;;;;;;;;;;;20.95;35.90;95637.72;10311110;28;2904;-67
2024/03/12 15:43:09;;;;;;;;;;;;;;;20.95;35.20;95635.88;10286992;28;2851;-69
2024/03/12 15:48:09;;;;;;;;;;;;;;;20.94;35.78;95642.19;10314685;28;2870;-68
2024/03/12 15:53:11;;;;;;;;;;;;;;;20.95;35.99;95638.50;10305177;28;2977;-68
2024/03/12 15:58:15;;;;;;;;;;;;;;;21.01;35.39;95634.75;10280594;28;2865;-67
2024/03/12 16:03:16;;;;;;;;;;;;;;;21.04;35.91;95638.72;10286460;28;2930;-68
2024/03/12 16:08:16;;;;;;;;;;;;;;;21.07;35.35;95643.44;10274904;28;2827;-66
2024/03/12 16:13:16;;;;;;;;;;;;;;;21.10;35.42;95640.25;10310148;28;2795;-66
2024/03/12 16:18:17;;;;;;;;;;;;;;;21.15;35.49;95647.28;10267566;28;2914;-66
2024/03/12 16:23:17;;;;;;;;;;;;;;;21.17;35.07;95648.59;10303608;28;2773;-66
2024/03/12 16:28:20;;;;;;;;;;;;;;;21.17;34.78;95648.59;10289274;28;3017;-66
2024/03/12 16:33:20;;;;;;;;;;;;;;;21.21;34.29;95654.09;10290973;28;2906;-66
2024/03/12 16:38:21;;;;;;;;;;;;;;;21.20;34.53;95657.81;10311300;28;2803;-67
2024/03/12 16:43:22;;;;;;;;;;;;;;;21.20;34.86;95663.06;10288050;28;2944;-67
2024/03/12 16:48:22;;;;;;;;;;;;;;;21.22;34.73;95666.22;10318862;28;2830;-67
2024/03/12 16:53:22;;;;;;;;;;;;;;;21.25;34.43;95670.91;10268383;28;2827;-68
2024/03/12 16:58:23;;;;;;;;;;;;;;;21.26;34.58;95683.03;10316984;28;2788;-67
2024/03/12 17:03:24;;;;;;;;;;;;;;;21.25;33.96;95676.97;10288144;28;2937;-67
2024/03/12 17:08:24;;;;;;;;;;;;;;;21.24;34.74;95695.72;10283531;28;3074;-67
2024/03/12 17:13:26;;;;;;;;;;;;;;;21.25;33.78;95705.19;10302311;28;2775;-67
2024/03/12 17:18:27;;;;;;;;;;;;;;;21.24;33.92;95703.63;10282494;28;2926;-67
2024/03/12 17:23:27;;;;;;;;;;;;;;;21.25;33.84;95707.81;10269836;28;2786;-67
2024/03/12 17:28:28;;;;;;;;;;;;;;;21.28;33.97;95708.06;10285131;28;2869;-67
2024/03/12 17:33:28;;;;;;;;;;;;;;;21.31;33.56;95714.66;10312335;28;2843;-67
2024/03/12 17:38:29;;;;;;;;;;;;;;;21.31;33.39;95725.19;10281467;28;2879;-66
2024/03/12 17:43:30;;;;;;;;;;;;;;;21.33;33.85;95726.47;10299746;28;3018;-66
2024/03/12 17:48:34;;;;;;;;;;;;;;;21.34;34.14;95730.69;10286751;28;2900;-67
2024/03/12 17:53:37;;;;;;;;;;;;;;;21.43;36.24;95733.50;10287337;28;2878;-68
2024/03/12 17:58:37;;;;;;;;;;;;;;;21.48;36.54;95728.97;10310912;28;2844;-67
2024/03/12 18:03:37;;;;;;;;;;;;;;;21.57;37.07;95726.50;10289255;28;2924;-67
2024/03/12 18:08:39;;;;;;;;;;;;;;;21.61;36.00;95741.50;10285227;28;2862;-63
2024/03/12 18:13:39;;;;;;;;;;;;;;;21.70;35.96;95733.75;10289995;28;2894;-68
2024/03/12 18:18:39;;;;;;;;;;;;;;;21.65;37.46;95733.78;10293753;28;2868;-66
2024/03/12 18:23:41;;;;;;;;;;;;;;;21.69;36.40;95737.44;10280404;28;2783;-65
2024/03/12 18:28:41;;;;;;;;;;;;;;;21.81;36.69;95737.84;10294470;28;2830;-71
2024/03/12 18:33:41;;;;;;;;;;;;;;;21.74;36.44;95742.69;10323556;28;2919;-70
2024/03/12 18:38:41;;;;;;;;;;;;;;;21.76;37.04;95743.19;10319705;28;2872;-68
2024/03/12 18:43:42;;;;;;;;;;;;;;;21.78;37.75;95743.69;10290428;28;2876;-68
2024/03/12 18:48:43;;;;;;;;;;;;;;;21.77;37.41;95748.16;10288953;28;2985;-68
2024/03/12 18:53:44;;;;;;;;;;;;;;;21.77;38.26;95747.38;10310699;28;2773;-68
2024/03/12 18:58:45;;;;;;;;;;;;;;;21.82;37.71;95752.66;10293777;28;2890;-67
2024/03/12 19:03:47;;;;;;;;;;;;;;;21.82;37.42;95755.28;10287225;28;2819;-67
2024/03/12 19:08:47;;;;;;;;;;;;;;;21.79;37.39;95763.72;10291565;28;2863;-67
2024/03/12 19:13:48;;;;;;;;;;;;;;;21.80;37.67;95766.06;10291441;28;2816;-67
2024/03/12 19:18:49;;;;;;;;;;;;;;;21.75;37.53;95770.63;10289620;28;3219;-67
2024/03/12 19:23:49;;;;;;;;;;;;;;;21.76;38.27;95764.28;10286404;28;2844;-67
2024/03/12 19:28:50;;;;;;;;;;;;;;;21.78;38.23;95770.06;10285272;28;2776;-67
2024/03/12 19:33:50;;;;;;;;;;;;;;;21.79;36.32;95755.81;10294592;28;2908;-67
2024/03/12 19:38:50;;;;;;;;;;;;;;;21.82;35.61;95766.59;10313343;28;2874;-67
2024/03/12 19:43:51;;;;;;;;;;;;;;;21.75;35.75;95773.25;10314885;28;2947;-66
2024/03/12 19:48:51;;;;;;;;;;;;;;;21.79;35.46;95761.88;10321687;28;2819;-67
2024/03/12 19:53:52;;;;;;;;;;;;;;;21.72;35.65;95771.19;10319303;28;2751;-67
2024/03/12 19:58:53;;;;;;;;;;;;;;;21.80;35.37;95770.56;10276830;28;2823;-67
2024/03/12 20:03:55;;;;;;;;;;;;;;;21.86;34.73;95764.22;10288217;28;2895;-66
2024/03/12 20:08:57;;;;;;;;;;;;;;;21.76;34.93;95777.47;10293833;28;2846;-67
2024/03/12 20:13:57;;;;;;;;;;;;;;;21.84;34.88;95779.53;10286181;28;2837;-64
2024/03/12 20:18:57;;;;;;;;;;;;;;;21.88;34.32;95776.03;10289891;28;2880;-65
2024/03/12 20:23:57;;;;;;;;;;;;;;;21.86;34.67;95785.31;10320556;28;2761;-66
2024/03/12 20:28:57;;;;;;;;;;;;;;;21.84;34.68;95782.94;10292932;28;2796;-64
2024/03/12 20:33:58;;;;;;;;;;;;;;;21.84;34.92;95787.44;10315523;28;2841;-65
2024/03/12 20:38:58;;;;;;;;;;;;;;;21.91;34.47;95785.25;10287947;28;2838;-66
2024/03/12 20:43:59;;;;;;;;;;;;;;;21.80;34.95;95791.69;10284065;28;2907;-65
2024/03/12 20:48:59;;;;;;;;;;;;;;;21.85;34.47;95791.66;10327590;28;2865;-66
2024/03/12 20:54:02;;;;;;;;;;;;;;;21.84;34.55;95788.22;10292753;28;3196;-67
2024/03/12 20:59:04;;;;;;;;;;;;;;;21.80;34.75;95789.03;10289984;28;2865;-67
2024/03/12 21:04:07;;;;;;;;;;;;;;;21.79;34.27;95792.75;10273669;28;2892;-68
2024/03/12 21:09:21;;;;;;;;;;;;;;;21.76;34.33;95788.03;10289053;28;2905;-66
2024/03/12 21:14:22;;;;;;;;;;;;;;;21.69;35.39;95777.00;10359800;28;2845;-69
2024/03/12 21:19:22;;;;;;;;;;;;;;;21.69;34.50;95784.94;10284115;28;2811;-70
2024/03/12 21:24:23;;;;;;;;;;;;;;;21.68;34.71;95781.50;10288258;28;2799;-67
2024/03/12 21:29:24;;;;;;;;;;;;;;;21.61;35.24;95778.41;10288512;28;2925;-69
2024/03/12 21:34:24;;;;;;;;;;;;;;;21.56;35.73;95780.31;10276567;28;2848;-70
2024/03/12 21:39:26;;;;;;;;;;;;;;;21.51;35.80;95773.25;10265613;28;2860;-70
2024/03/12 21:44:27;;;;;;;;;;;;;;;21.47;35.11;95774.88;10284564;28;2810;-70
2024/03/12 21:49:27;;;;;;;;;;;;;;;21.46;35.59;95781.19;10293412;28;2937;-70
2024/03/12 21:54:28;;;;;;;;;;;;;;;21.45;34.50;95774.34;10289094;28;3314;-70
2024/03/12 21:59:30;;;;;;;;;;;;;;;21.44;35.95;95777.25;10288839;28;2799;-70
2024/03/12 22:04:30;;;;;;;;;;;;;;;21.36;35.92;95768.09;10317041;28;2857;-69
2024/03/12 22:09:30;;;;;;;;;;;;;;;21.36;34.71;95767.31;10319870;28;2924;-69
2024/03/12 22:14:31;;;;;;;;;;;;;;;21.27;35.86;95764.47;10312218;28;2898;-69
2024/03/12 22:19:31;;;;;;;;;;;;;;;21.28;35.29;95766.06;10286244;28;2869;-69
2024/03/12 22:24:32;;;;;;;;;;;;;;;21.23;34.27;95762.66;10303176;28;2787;-68
2024/03/12 22:29:33;;;;;;;;;;;;;;;21.17;35.94;95767.22;10293466;28;2911;-70
2024/03/12 22:34:33;;;;;;;;;;;;;;;21.17;34.33;95766.41;10320413;28;2903;-70
2024/03/12 22:39:36;;;;;;;;;;;;;;;21.15;34.91;95760.63;10325888;28;2828;-69
2024/03/12 22:44:39;;;;;;;;;;;;;;;21.08;36.47;95759.09;10318286;28;2805;-71
2024/03/12 22:49:43;;;;;;;;;;;;;;;21.08;35.75;95756.47;10291170;28;2819;-69
2024/03/12 22:54:43;;;;;;;;;;;;;;;21.01;36.47;95753.34;10296789;28;2787;-69
2024/03/12 22:59:44;;;;;;;;;;;;;;;20.99;35.95;95746.78;10289295;28;3033;-70
2024/03/12 23:04:44;;;;;;;;;;;;;;;20.94;36.50;95744.97;10322603;28;2864;-71
2024/03/12 23:09:44;;;;;;;;;;;;;;;20.88;38.47;95745.28;10294026;28;2909;-70
2024/03/12 23:14:44;;;;;;;;;;;;;;;20.88;37.10;95740.78;10311287;28;2795;-69
2024/03/12 23:19:45;;;;;;;;;;;;;;;20.85;37.14;95736.09;10291358;28;2868;-69
2024/03/12 23:24:46;;;;;;;;;;;;;;;20.84;37.40;95731.88;10292487;28;2851;-70
2024/03/12 23:29:46;;;;;;;;;;;;;;;20.81;36.52;95731.66;10319045;28;2787;-70
2024/03/12 23:34:46;;;;;;;;;;;;;;;20.78;37.97;95738.25;10296442;28;2862;-71
2024/03/12 23:39:46;;;;;;;;;;;;;;;20.77;36.83;95733.25;10296596;28;2834;-69
2024/03/12 23:44:47;;;;;;;;;;;;;;;20.73;36.63;95727.72;10299441;28;3378;-69
2024/03/12 23:49:48;;;;;;;;;;;;;;;20.72;36.51;95726.16;10300866;28;2784;-70
2024/03/12 23:54:48;;;;;;;;;;;;;;;20.70;37.74;95725.66;10268998;28;2865;-71
2024/03/12 23:59:49;;;;;;;;;;;;;;;20.67;38.68;95722.78;10299646;28;2833;-70
